Terminal Aerodrome Forecast
Issued by NWS Chicago, IL

Home | Current Version | Previous Version | Graphics & Text | Print | Product List | Glossary On
Versions: 1 2 3 4 5 6 7 8 9 10 11 12 13 14 15 16 17 18 19 20 21 22 23 24 25 26 27 28
000
FTUS43 KLOT 212105 AAA
TAFRFD
TAF AMD
KRFD 212105Z 2121/2218 19009KT P6SM SCT030 BKN150
     FM220300 19008KT P6SM VCTS BKN050CB
     FM220500 21009KT 4SM TSRA OVC035CB
      TEMPO 2205/2209 1SM TSRA OVC015CB
     FM220900 25008KT 6SM -SHRA OVC020
     FM221600 34013G20KT P6SM SCT035=

USA.gov is the U.S. government's official web portal to all federal, state and local government web resources and services.